Time;durP1;ratioP1;P1;durP2;ratioP2;P2;SDS_P1;SDS_P2;PMS_P1;PMS_P2;Temp;Humidity;BMP_temperature;BMP_pressure;BME280_temperature;BME280_humidity;BME280_pressure;Samples;Min_cycle;Max_cycle;Signal;HPM_P1;HPM_P2
2021/08/13 00:01:06;;;;;;;11.82;9.95;;;19.20;99.90;;;;;;5051410;28;20082;-75
2021/08/13 00:03:32;;;;;;;13.57;10.27;;;19.20;99.90;;;;;;5051786;28;20550;-75
2021/08/13 00:05:57;;;;;;;12.10;9.95;;;19.20;99.90;;;;;;5050669;28;20025;-76
2021/08/13 00:08:23;;;;;;;14.10;9.88;;;19.20;99.90;;;;;;5049814;28;20443;-76
2021/08/13 00:10:50;;;;;;;15.07;10.15;;;19.20;99.90;;;;;;5051583;28;20029;-76
2021/08/13 00:13:16;;;;;;;15.32;10.90;;;19.20;99.90;;;;;;5050009;28;20032;-76
2021/08/13 00:15:41;;;;;;;15.35;10.95;;;19.20;99.90;;;;;;5048754;28;20044;-76
2021/08/13 00:18:07;;;;;;;15.55;11.48;;;19.20;99.90;;;;;;5051898;28;20120;-76
2021/08/13 00:20:35;;;;;;;13.20;11.73;;;19.20;99.90;;;;;;5051525;28;20050;-76
2021/08/13 00:23:01;;;;;;;13.38;10.30;;;19.30;99.90;;;;;;5054203;28;20025;-76
2021/08/13 00:25:27;;;;;;;13.68;10.88;;;19.10;99.90;;;;;;5054799;28;20098;-76
2021/08/13 00:27:52;;;;;;;15.20;11.10;;;19.10;99.90;;;;;;5054715;28;20028;-76
2021/08/13 00:30:18;;;;;;;11.80;10.38;;;19.20;99.90;;;;;;5055254;28;20025;-76
2021/08/13 00:32:44;;;;;;;14.05;10.13;;;19.10;99.90;;;;;;5055201;28;20112;-76
2021/08/13 00:35:09;;;;;;;13.05;10.18;;;19.10;99.90;;;;;;5054820;28;20020;-76
2021/08/13 00:37:37;;;;;;;16.85;11.05;;;19.10;99.90;;;;;;5055498;28;20036;-75
2021/08/13 00:40:04;;;;;;;12.93;11.57;;;19.10;99.90;;;;;;5055558;28;20039;-75
2021/08/13 00:42:30;;;;;;;17.23;11.65;;;19.10;99.90;;;;;;5055028;28;20108;-76
2021/08/13 00:44:55;;;;;;;19.70;10.75;;;19.10;99.90;;;;;;5053090;28;20108;-75
2021/08/13 00:47:21;;;;;;;14.00;10.80;;;19.10;99.90;;;;;;5041539;28;20052;-76
2021/08/13 00:49:47;;;;;;;14.57;10.63;;;19.00;99.90;;;;;;5034996;28;20080;-75
2021/08/13 00:52:15;;;;;;;14.68;11.25;;;18.90;99.90;;;;;;5035169;28;20025;-75
2021/08/13 00:54:41;;;;;;;14.23;11.45;;;18.90;99.90;;;;;;5034306;28;20021;-76
2021/08/13 00:57:07;;;;;;;13.98;11.38;;;19.00;99.90;;;;;;5034912;28;20036;-75
2021/08/13 00:59:33;;;;;;;18.08;12.05;;;19.00;99.90;;;;;;5034705;28;20021;-75
2021/08/13 01:01:59;;;;;;;14.07;11.82;;;19.00;99.90;;;;;;5033340;28;20022;-76
2021/08/13 01:04:25;;;;;;;17.73;12.77;;;18.90;99.90;;;;;;5034374;28;20078;-75
2021/08/13 01:06:51;;;;;;;19.50;12.80;;;18.90;99.90;;;;;;5034732;28;20036;-75
2021/08/13 01:09:16;;;;;;;24.15;12.95;;;18.90;99.90;;;;;;5034864;28;20030;-76
2021/08/13 01:12:02;;;;;;;15.57;11.20;;;18.90;99.90;;;;;;5034696;28;20028;-76
2021/08/13 01:14:40;;;;;;;15.82;12.20;;;18.80;99.90;;;;;;5034102;28;20029;-76
2021/08/13 01:17:08;;;;;;;14.32;11.55;;;18.80;99.90;;;;;;5034942;28;20033;-76
2021/08/13 01:19:56;;;;;;;14.23;11.25;;;18.80;99.90;;;;;;5034805;28;20025;-76
2021/08/13 01:22:27;;;;;;;20.95;12.70;;;18.80;99.90;;;;;;5034824;28;20660;-76
2021/08/13 01:24:55;;;;;;;15.90;11.10;;;18.70;99.90;;;;;;5034130;28;20506;-76
2021/08/13 01:27:38;;;;;;;15.13;11.90;;;18.60;99.90;;;;;;5034299;28;20057;-76
2021/08/13 01:30:13;;;;;;;14.00;11.82;;;18.60;99.90;;;;;;5034122;28;20022;-76
2021/08/13 01:33:09;;;;;;;14.05;11.70;;;18.60;99.90;;;;;;5032774;28;20036;-76
2021/08/13 01:35:40;;;;;;;16.80;11.57;;;18.70;99.90;;;;;;5032650;28;20009;-76
2021/08/13 01:38:24;;;;;;;12.75;11.13;;;18.70;99.90;;;;;;5034352;28;20022;-75
2021/08/13 01:40:51;;;;;;;15.32;12.00;;;18.60;99.90;;;;;;5034303;28;20025;-76
2021/08/13 01:43:24;;;;;;;16.10;12.35;;;18.50;99.90;;;;;;5033936;28;20025;-76
2021/08/13 01:45:51;;;;;;;15.45;12.85;;;18.60;99.90;;;;;;5034724;28;20490;-75
2021/08/13 01:48:20;;;;;;;15.45;12.23;;;18.60;99.90;;;;;;5053920;28;20128;-75
2021/08/13 01:50:47;;;;;;;19.30;12.32;;;18.60;99.90;;;;;;5054165;28;20027;-76
2021/08/13 01:53:14;;;;;;;15.45;12.30;;;18.50;99.90;;;;;;5058746;28;20372;-75
2021/08/13 01:55:41;;;;;;;17.17;13.02;;;18.50;99.90;;;;;;5066478;28;20017;-75
2021/08/13 01:58:07;;;;;;;15.15;12.82;;;18.40;99.90;;;;;;5070834;28;20041;-76
2021/08/13 02:00:34;;;;;;;16.15;12.73;;;18.40;99.90;;;;;;5059966;28;20017;-75
2021/08/13 02:03:01;;;;;;;17.63;13.13;;;18.40;99.90;;;;;;5054457;28;20610;-76
2021/08/13 02:05:29;;;;;;;14.27;12.77;;;18.40;99.90;;;;;;5053454;28;20051;-76
2021/08/13 02:07:57;;;;;;;18.40;14.23;;;18.40;99.90;;;;;;5053628;28;20029;-75
2021/08/13 02:10:25;;;;;;;15.65;13.68;;;18.40;99.90;;;;;;5053380;28;20033;-76
2021/08/13 02:12:50;;;;;;;19.00;14.07;;;18.40;99.90;;;;;;5053435;28;20025;-76
2021/08/13 02:15:16;;;;;;;15.18;13.13;;;18.40;99.90;;;;;;5052651;28;20070;-75
2021/08/13 02:17:56;;;;;;;19.35;14.05;;;18.30;99.90;;;;;;5036793;28;20419;-76
2021/08/13 02:20:24;;;;;;;19.50;13.88;;;18.40;99.90;;;;;;5033232;28;20022;-76
2021/08/13 02:22:49;;;;;;;15.98;11.60;;;18.40;99.90;;;;;;5033350;28;20017;-76
2021/08/13 02:25:15;;;;;;;16.88;12.73;;;18.30;99.90;;;;;;5032538;28;20095;-76
2021/08/13 02:27:41;;;;;;;20.55;12.30;;;18.30;99.90;;;;;;5033152;28;20124;-76
2021/08/13 02:30:08;;;;;;;18.42;12.93;;;18.30;99.90;;;;;;5033011;28;20021;-75
2021/08/13 02:32:34;;;;;;;19.50;13.25;;;18.40;99.90;;;;;;5033406;28;20639;-75
2021/08/13 02:35:01;;;;;;;16.10;13.07;;;18.40;99.90;;;;;;5033096;28;20028;-75
2021/08/13 02:37:47;;;;;;;17.00;11.40;;;18.40;99.90;;;;;;5054946;28;20022;-76
2021/08/13 02:40:15;;;;;;;14.50;11.88;;;18.30;99.90;;;;;;5046543;28;20029;-74
2021/08/13 02:43:02;;;;;;;14.43;11.80;;;18.20;99.90;;;;;;5043018;28;20036;-74
2021/08/13 02:45:31;;;;;;;17.40;13.20;;;18.40;99.90;;;;;;5033991;28;20029;-75
2021/08/13 02:47:59;;;;;;;16.08;13.52;;;18.50;99.90;;;;;;5014390;28;20383;-75
2021/08/13 02:50:28;;;;;;;16.80;13.20;;;18.50;99.90;;;;;;5012927;28;20419;-77
2021/08/13 02:53:00;;;;;;;18.70;13.38;;;18.40;99.90;;;;;;5012862;28;20018;-77
2021/08/13 02:55:34;;;;;;;14.73;12.00;;;18.40;99.90;;;;;;5011017;28;20025;-75
2021/08/13 02:58:02;;;;;;;21.65;11.45;;;18.20;99.90;;;;;;5012633;28;20296;-75
2021/08/13 03:00:28;;;;;;;15.38;11.90;;;18.10;99.90;;;;;;5011076;28;20055;-76
2021/08/13 03:02:55;;;;;;;12.98;10.93;;;18.20;99.90;;;;;;5012667;28;20030;-75
2021/08/13 03:05:23;;;;;;;14.38;11.82;;;18.30;99.90;;;;;;5012019;28;20518;-74
2021/08/13 03:07:50;;;;;;;16.67;12.18;;;18.40;99.90;;;;;;5012703;28;20391;-75
2021/08/13 03:10:16;;;;;;;15.63;11.68;;;18.50;99.90;;;;;;5012414;28;20030;-77
2021/08/13 03:12:42;;;;;;;19.33;11.98;;;18.50;99.90;;;;;;5012439;28;20448;-76
2021/08/13 03:15:09;;;;;;;14.57;11.88;;;18.50;99.90;;;;;;5011796;28;20084;-76
2021/08/13 03:17:35;;;;;;;16.85;12.25;;;18.40;99.90;;;;;;5041839;28;20483;-76
2021/08/13 03:20:02;;;;;;;16.08;11.90;;;18.50;99.90;;;;;;5052248;28;20466;-76
2021/08/13 03:22:29;;;;;;;13.27;11.68;;;18.40;99.90;;;;;;5052220;28;20028;-76
2021/08/13 03:24:55;;;;;;;19.75;13.48;;;18.40;99.90;;;;;;5051403;28;20021;-76
2021/08/13 03:27:22;;;;;;;18.90;13.82;;;18.40;99.90;;;;;;5051922;28;20036;-76
2021/08/13 03:29:48;;;;;;;18.60;13.88;;;18.40;99.90;;;;;;5051756;28;20025;-76
2021/08/13 03:32:13;;;;;;;15.32;13.32;;;18.40;99.90;;;;;;5051861;28;20029;-76
2021/08/13 03:34:39;;;;;;;15.40;13.40;;;18.20;99.90;;;;;;5051079;28;20028;-76
2021/08/13 03:37:05;;;;;;;20.33;13.38;;;18.30;99.90;;;;;;5051869;28;20526;-76
2021/08/13 03:39:30;;;;;;;15.80;13.05;;;18.20;99.90;;;;;;5051649;28;20032;-75
2021/08/13 03:41:56;;;;;;;19.45;14.85;;;18.20;99.90;;;;;;5051635;28;20103;-76
2021/08/13 03:44:22;;;;;;;17.08;14.13;;;18.30;99.90;;;;;;5050729;28;20043;-76
2021/08/13 03:46:47;;;;;;;21.60;15.55;;;18.20;99.90;;;;;;5051405;28;20491;-76
2021/08/13 03:49:13;;;;;;;23.75;13.88;;;18.20;99.90;;;;;;5051486;28;20036;-76
2021/08/13 03:51:39;;;;;;;19.85;14.40;;;18.10;99.90;;;;;;5051641;28;20498;-77
2021/08/13 03:54:05;;;;;;;21.30;14.02;;;18.10;99.90;;;;;;5050433;28;20017;-76
2021/08/13 03:56:31;;;;;;;16.38;13.05;;;18.10;99.90;;;;;;5049882;28;20056;-76
2021/08/13 03:58:59;;;;;;;19.42;14.52;;;18.10;99.90;;;;;;5051330;28;20479;-76
2021/08/13 04:01:24;;;;;;;18.80;14.35;;;18.10;99.90;;;;;;5051537;28;20467;-75
2021/08/13 04:03:50;;;;;;;19.33;14.05;;;18.10;99.90;;;;;;5051370;28;20056;-76
2021/08/13 04:06:15;;;;;;;18.23;14.40;;;18.10;99.90;;;;;;5050574;28;20025;-76
2021/08/13 04:08:41;;;;;;;16.30;13.85;;;18.20;99.90;;;;;;5051292;28;20071;-76
2021/08/13 04:11:07;;;;;;;15.00;12.50;;;18.20;99.90;;;;;;5051308;28;20115;-76
2021/08/13 04:13:32;;;;;;;21.58;13.55;;;18.20;99.90;;;;;;5022235;28;20053;-78
2021/08/13 04:15:58;;;;;;;13.85;11.73;;;18.20;99.90;;;;;;5031831;28;20026;-76
2021/08/13 04:18:24;;;;;;;14.20;10.75;;;18.30;99.90;;;;;;5050549;28;20028;-75
2021/08/13 04:20:49;;;;;;;21.88;11.75;;;18.40;99.90;;;;;;5031105;28;20479;-75
2021/08/13 04:23:15;;;;;;;15.85;11.70;;;18.50;99.90;;;;;;5030808;28;20036;-75
2021/08/13 04:25:41;;;;;;;17.27;12.85;;;18.50;99.90;;;;;;5029898;28;20053;-75
2021/08/13 04:28:06;;;;;;;13.95;12.02;;;18.50;99.90;;;;;;5030867;28;20395;-76
2021/08/13 04:30:32;;;;;;;15.50;10.82;;;18.50;99.90;;;;;;5029274;28;20032;-76
2021/08/13 04:32:58;;;;;;;16.52;12.30;;;18.50;99.90;;;;;;5011497;28;20378;-75
2021/08/13 04:35:24;;;;;;;17.90;11.77;;;18.40;99.90;;;;;;5010616;28;20022;-76
2021/08/13 04:37:50;;;;;;;13.38;11.10;;;18.40;99.90;;;;;;5012754;28;20029;-76
2021/08/13 04:40:15;;;;;;;13.13;11.25;;;18.40;99.90;;;;;;5011056;28;20116;-76
2021/08/13 04:42:41;;;;;;;22.17;11.10;;;18.30;99.90;;;;;;5010989;28;20034;-76
2021/08/13 04:45:07;;;;;;;18.33;11.68;;;18.30;99.90;;;;;;5057759;22;20405;-71
2021/08/13 04:47:33;;;;;;;17.67;11.48;;;18.40;99.90;;;;;;5030294;28;20038;-71
2021/08/13 04:49:58;;;;;;;17.33;12.27;;;18.40;99.90;;;;;;5030977;28;20383;-74
2021/08/13 04:52:24;;;;;;;17.58;12.38;;;18.50;99.90;;;;;;5030625;28;20056;-76
2021/08/13 04:54:50;;;;;;;15.80;11.35;;;18.50;99.90;;;;;;5021056;28;20049;-73
2021/08/13 04:57:16;;;;;;;16.15;12.00;;;18.30;99.90;;;;;;5011207;28;20052;-73
2021/08/13 04:59:42;;;;;;;17.15;13.13;;;18.40;99.90;;;;;;5010512;28;20057;-73
2021/08/13 05:02:07;;;;;;;16.88;12.52;;;18.40;99.90;;;;;;4992660;28;20121;-74
2021/08/13 05:04:33;;;;;;;14.00;12.55;;;18.40;99.90;;;;;;5009833;28;20032;-73
2021/08/13 05:06:59;;;;;;;16.02;12.50;;;18.30;99.90;;;;;;5010659;28;20033;-73
2021/08/13 05:09:24;;;;;;;14.90;12.20;;;18.40;99.90;;;;;;5013468;28;20041;-74
2021/08/13 05:11:50;;;;;;;19.48;12.68;;;18.40;99.90;;;;;;5013360;28;20022;-70
2021/08/13 05:14:16;;;;;;;18.67;12.30;;;18.40;99.90;;;;;;5015804;28;20104;-71
2021/08/13 05:16:41;;;;;;;15.52;12.45;;;18.50;99.90;;;;;;5032536;28;20028;-70
2021/08/13 05:19:07;;;;;;;15.40;12.45;;;18.40;99.90;;;;;;5034195;28;20033;-71
2021/08/13 05:21:40;;;;;;;15.18;12.93;;;18.50;99.90;;;;;;5034119;28;20029;-69
2021/08/13 05:24:06;;;;;;;19.88;12.50;;;18.60;99.90;;;;;;5033822;28;20533;-71
2021/08/13 05:26:32;;;;;;;18.23;13.85;;;18.60;99.90;;;;;;5033252;28;20059;-72
2021/08/13 05:28:57;;;;;;;15.15;12.60;;;18.60;99.90;;;;;;5019169;28;20026;-72
2021/08/13 05:31:23;;;;;;;18.38;13.43;;;18.70;99.90;;;;;;4974663;28;20027;-72
2021/08/13 05:33:49;;;;;;;14.70;12.88;;;18.70;99.90;;;;;;4991228;28;20508;-72
2021/08/13 05:36:16;;;;;;;15.20;13.20;;;18.70;99.90;;;;;;5000044;28;20041;-72
2021/08/13 05:38:43;;;;;;;21.02;12.13;;;18.80;99.90;;;;;;4994100;28;20053;-72
2021/08/13 05:41:08;;;;;;;14.82;12.20;;;18.90;99.90;;;;;;4994077;28;20037;-72
2021/08/13 05:43:34;;;;;;;16.52;11.85;;;18.90;99.90;;;;;;5032112;28;20026;-74
2021/08/13 05:46:00;;;;;;;18.35;12.68;;;18.90;99.90;;;;;;5032335;28;20036;-73
2021/08/13 05:48:25;;;;;;;17.45;12.40;;;19.00;99.90;;;;;;5033645;28;20409;-73
2021/08/13 05:50:51;;;;;;;21.10;12.15;;;19.10;99.90;;;;;;5032811;28;20026;-72
2021/08/13 05:53:17;;;;;;;17.30;11.48;;;19.10;99.90;;;;;;5033570;28;20064;-71
2021/08/13 05:55:42;;;;;;;18.38;11.98;;;19.10;99.90;;;;;;5033422;28;20036;-73
2021/08/13 05:58:08;;;;;;;22.50;12.23;;;19.20;99.90;;;;;;5033101;28;20057;-72
2021/08/13 06:00:34;;;;;;;19.20;11.93;;;19.30;99.90;;;;;;5032991;28;20553;-72
2021/08/13 06:03:01;;;;;;;21.33;11.70;;;19.30;99.90;;;;;;5033193;28;20805;-72
2021/08/13 06:05:27;;;;;;;15.50;12.73;;;19.40;99.90;;;;;;5020751;28;20518;-73
2021/08/13 06:07:53;;;;;;;14.73;11.55;;;19.40;99.90;;;;;;5016357;28;20027;-72
2021/08/13 06:10:20;;;;;;;15.85;11.68;;;19.50;99.90;;;;;;5000708;28;20028;-74
2021/08/13 06:12:46;;;;;;;15.35;11.00;;;19.50;99.90;;;;;;4993814;28;20041;-70
2021/08/13 06:15:13;;;;;;;17.38;11.05;;;19.50;99.90;;;;;;5012626;28;20026;-70
2021/08/13 06:17:41;;;;;;;20.13;11.30;;;19.60;99.90;;;;;;5013556;28;20022;-70
2021/08/13 06:20:08;;;;;;;14.23;11.68;;;19.60;99.90;;;;;;5024007;28;20026;-72
2021/08/13 06:22:34;;;;;;;14.68;11.18;;;19.60;99.90;;;;;;5032635;28;20070;-71
2021/08/13 06:25:00;;;;;;;13.23;11.48;;;19.60;99.90;;;;;;5031322;28;20124;-73
2021/08/13 06:27:25;;;;;;;14.30;10.80;;;19.80;99.90;;;;;;5012930;28;20026;-71
2021/08/13 06:29:51;;;;;;;14.05;10.63;;;19.90;99.90;;;;;;5012998;28;20422;-72
2021/08/13 06:32:19;;;;;;;12.38;10.32;;;20.10;99.90;;;;;;5010138;28;20028;-72
2021/08/13 06:34:45;;;;;;;14.95;10.60;;;20.30;99.90;;;;;;5010067;28;20118;-73
2021/08/13 06:37:11;;;;;;;14.23;10.57;;;20.40;99.90;;;;;;5019019;28;20017;-72
2021/08/13 06:39:36;;;;;;;14.13;10.20;;;20.50;99.90;;;;;;5030859;28;20047;-72
2021/08/13 06:42:02;;;;;;;11.13;9.35;;;20.70;99.90;;;;;;5031080;28;20036;-72
2021/08/13 06:44:28;;;;;;;13.18;10.00;;;20.70;99.90;;;;;;5031818;28;20049;-73
2021/08/13 06:46:54;;;;;;;14.45;10.15;;;20.90;99.90;;;;;;5014632;28;20030;-72
2021/08/13 06:49:19;;;;;;;14.05;8.80;;;21.00;99.90;;;;;;5032077;28;20033;-73
2021/08/13 06:51:45;;;;;;;12.95;9.23;;;21.20;99.90;;;;;;5032148;28;20025;-72
2021/08/13 06:54:10;;;;;;;15.70;8.52;;;21.50;99.90;;;;;;5032191;28;20415;-72
2021/08/13 06:56:36;;;;;;;14.75;8.40;;;21.70;99.90;;;;;;5031782;28;20099;-72
2021/08/13 06:59:02;;;;;;;11.70;8.45;;;21.80;99.90;;;;;;5032301;28;20121;-73
2021/08/13 07:01:28;;;;;;;18.05;9.30;;;21.90;99.90;;;;;;5031660;28;20490;-73
2021/08/13 07:03:53;;;;;;;12.38;8.50;;;21.90;99.90;;;;;;5012297;28;20030;-72
2021/08/13 07:06:19;;;;;;;11.55;7.90;;;22.10;99.90;;;;;;5012199;28;20072;-72
2021/08/13 07:08:44;;;;;;;11.60;7.30;;;22.30;99.90;;;;;;5013575;28;20080;-72
2021/08/13 07:11:10;;;;;;;13.63;8.82;;;22.50;99.90;;;;;;5013943;28;20036;-74
2021/08/13 07:13:36;;;;;;;9.75;7.55;;;22.80;99.90;;;;;;5031755;28;20479;-72
2021/08/13 07:16:01;;;;;;;8.30;7.35;;;22.80;99.90;;;;;;5031157;28;20029;-73
2021/08/13 07:18:27;;;;;;;9.75;7.75;;;23.00;99.90;;;;;;5031831;28;20056;-72
2021/08/13 07:20:53;;;;;;;8.77;7.45;;;23.00;99.90;;;;;;5031858;28;20463;-71
2021/08/13 07:23:18;;;;;;;10.88;8.15;;;23.10;99.90;;;;;;5031463;28;20018;-72
2021/08/13 07:25:44;;;;;;;10.50;7.35;;;23.10;99.90;;;;;;5030945;28;20487;-74
2021/08/13 07:28:10;;;;;;;12.45;7.03;;;23.20;99.90;;;;;;5031407;28;20048;-73
2021/08/13 07:30:35;;;;;;;10.60;7.45;;;23.10;99.90;;;;;;5013623;28;20120;-73
2021/08/13 07:33:01;;;;;;;12.68;7.65;;;23.20;99.90;;;;;;5031394;28;20049;-71
2021/08/13 07:35:27;;;;;;;8.85;6.55;;;23.40;99.90;;;;;;5031111;28;20411;-71
2021/08/13 07:37:52;;;;;;;10.82;6.85;;;23.50;99.90;;;;;;5031151;28;20530;-72
2021/08/13 07:40:18;;;;;;;9.75;6.90;;;23.70;99.90;;;;;;5031699;28;20712;-72
2021/08/13 07:42:44;;;;;;;13.55;7.20;;;23.80;99.90;;;;;;5031573;28;20080;-71
2021/08/13 07:45:10;;;;;;;12.13;7.32;;;24.00;99.90;;;;;;5030940;28;20041;-70
2021/08/13 07:47:36;;;;;;;13.05;7.15;;;24.10;99.90;;;;;;5030910;28;20737;-71
2021/08/13 07:50:02;;;;;;;12.10;6.95;;;24.40;99.90;;;;;;5031459;28;20033;-71
2021/08/13 07:52:27;;;;;;;8.02;6.63;;;24.30;99.90;;;;;;5031060;28;20424;-71
2021/08/13 07:54:53;;;;;;;11.82;6.07;;;24.60;99.90;;;;;;5030580;28;20079;-72
2021/08/13 07:57:20;;;;;;;8.77;6.00;;;25.00;99.90;;;;;;5031911;28;20113;-72
2021/08/13 07:59:45;;;;;;;13.98;6.55;;;25.20;99.90;;;;;;5031746;28;20582;-72
2021/08/13 08:02:11;;;;;;;6.47;5.60;;;25.20;99.90;;;;;;5012182;28;20034;-73
2021/08/13 08:04:37;;;;;;;9.43;5.90;;;25.20;99.90;;;;;;4990634;28;20026;-70
2021/08/13 08:07:03;;;;;;;11.43;5.82;;;25.40;99.90;;;;;;5031018;28;20396;-73
2021/08/13 08:09:29;;;;;;;9.57;5.85;;;25.70;99.90;;;;;;5031378;28;20029;-73
2021/08/13 08:11:55;;;;;;;8.60;6.10;;;25.90;99.90;;;;;;5031404;28;20026;-73
2021/08/13 08:14:21;;;;;;;7.82;5.75;;;26.30;99.90;;;;;;5030916;28;20028;-70
2021/08/13 08:16:47;;;;;;;8.73;5.60;;;26.10;99.90;;;;;;5030915;28;20021;-69
2021/08/13 08:19:13;;;;;;;10.98;6.32;;;26.10;99.90;;;;;;5031141;28;20435;-69
2021/08/13 08:21:39;;;;;;;7.97;5.47;;;26.10;99.90;;;;;;5031271;28;20029;-68
2021/08/13 08:24:05;;;;;;;8.07;4.35;;;26.20;99.90;;;;;;5030873;28;20029;-69
2021/08/13 08:26:31;;;;;;;6.63;4.97;;;26.30;99.90;;;;;;5030441;28;20030;-70
2021/08/13 08:28:56;;;;;;;7.30;4.82;;;26.90;99.90;;;;;;5030964;28;20100;-71
2021/08/13 08:31:22;;;;;;;7.70;4.93;;;27.40;99.90;;;;;;5031188;28;20021;-70
2021/08/13 08:33:48;;;;;;;5.13;3.90;;;27.50;99.90;;;;;;5013120;28;20028;-70
2021/08/13 08:36:14;;;;;;;8.57;4.30;;;27.90;99.90;;;;;;5030404;28;20036;-70
2021/08/13 08:38:40;;;;;;;8.88;4.28;;;28.00;99.90;;;;;;5031351;28;20026;-69
2021/08/13 08:41:07;;;;;;;10.25;4.80;;;27.50;99.90;;;;;;5031715;28;20073;-69
2021/08/13 08:43:33;;;;;;;10.75;4.90;;;27.80;99.90;;;;;;5033494;28;20033;-71
2021/08/13 08:46:00;;;;;;;10.77;4.85;;;28.10;99.90;;;;;;5034196;28;20080;-70
2021/08/13 08:48:36;;;;;;;7.75;4.70;;;28.70;99.90;;;;;;5034458;28;20081;-70
2021/08/13 08:51:03;;;;;;;13.30;4.35;;;28.50;99.90;;;;;;5035482;28;20024;-70
2021/08/13 08:53:30;;;;;;;7.75;4.32;;;29.20;99.90;;;;;;5034538;28;20021;-70
2021/08/13 08:55:57;;;;;;;13.52;4.53;;;30.00;99.90;;;;;;5033981;28;20064;-70
2021/08/13 08:58:24;;;;;;;9.73;4.63;;;30.50;99.90;;;;;;5034454;28;20032;-69
2021/08/13 09:00:50;;;;;;;9.93;4.47;;;30.90;99.90;;;;;;5035042;28;20021;-69
2021/08/13 09:03:19;;;;;;;11.70;4.82;;;29.80;99.90;;;;;;5020076;28;20100;-70
2021/08/13 09:05:46;;;;;;;11.35;4.28;;;29.60;99.90;;;;;;5029989;28;20071;-70
2021/08/13 09:08:11;;;;;;;11.80;4.03;;;29.90;99.90;;;;;;5041011;28;20404;-69
2021/08/13 09:10:37;;;;;;;10.15;4.38;;;30.20;99.90;;;;;;5043542;28;20040;-69
2021/08/13 09:13:05;;;;;;;8.27;4.38;;;30.40;99.90;;;;;;5043602;28;20025;-69
2021/08/13 09:15:52;;;;;;;7.20;4.43;;;30.40;99.90;;;;;;5041907;28;20103;-68
2021/08/13 09:18:25;;;;;;;9.63;3.85;;;30.40;99.90;;;;;;5035114;28;20414;-69
2021/08/13 09:20:59;;;;;;;6.47;3.80;;;31.00;99.90;;;;;;5034526;28;20029;-69
2021/08/13 09:23:33;;;;;;;6.53;3.42;;;31.40;99.90;;;;;;5034136;28;20036;-69
2021/08/13 09:26:21;;;;;;;6.93;4.05;;;31.50;98.60;;;;;;5034083;28;20029;-69
2021/08/13 09:28:49;;;;;;;8.80;4.13;;;30.60;99.90;;;;;;5033303;28;20030;-70
2021/08/13 09:31:49;;;;;;;6.68;3.92;;;30.70;99.90;;;;;;5034516;28;20024;-70
2021/08/13 09:34:16;;;;;;;6.20;4.03;;;31.50;99.50;;;;;;5026221;28;20123;-73
2021/08/13 09:36:54;;;;;;;8.10;4.07;;;30.70;99.00;;;;;;5033926;28;20026;-71
2021/08/13 09:39:30;;;;;;;7.75;4.00;;;31.20;99.90;;;;;;5033710;28;20472;-70
2021/08/13 09:41:58;;;;;;;8.27;4.25;;;31.50;99.00;;;;;;5033805;28;20025;-70
2021/08/13 09:44:24;;;;;;;10.40;4.38;;;31.70;98.00;;;;;;5033352;28;20539;-71
2021/08/13 09:47:08;;;;;;;10.32;4.78;;;30.50;98.40;;;;;;5033425;28;20032;-70
2021/08/13 09:49:35;;;;;;;7.40;3.70;;;30.30;99.90;;;;;;5033730;28;20039;-71
2021/08/13 09:52:15;;;;;;;11.60;4.65;;;30.80;99.90;;;;;;5033792;28;20108;-71
2021/08/13 09:54:42;;;;;;;6.22;3.67;;;31.10;99.60;;;;;;5032507;28;20018;-71
2021/08/13 09:57:10;;;;;;;7.55;3.90;;;30.50;99.40;;;;;;5015632;28;20044;-72
2021/08/13 09:59:37;;;;;;;8.02;4.30;;;30.70;99.10;;;;;;5033769;28;20025;-72
2021/08/13 10:02:13;;;;;;;13.30;4.65;;;30.70;98.70;;;;;;5028307;28;20025;-70
2021/08/13 10:04:40;;;;;;;8.88;4.47;;;29.90;99.60;;;;;;5013279;28;20507;-69
2021/08/13 10:07:06;;;;;;;17.23;4.30;;;29.70;99.90;;;;;;5032750;28;20052;-70
2021/08/13 10:09:32;;;;;;;6.95;4.18;;;29.70;99.90;;;;;;5032882;28;20361;-70
2021/08/13 10:12:09;;;;;;;13.75;4.88;;;30.30;99.90;;;;;;5033048;28;20036;-71
2021/08/13 10:14:35;;;;;;;10.88;4.35;;;30.40;99.40;;;;;;5032483;28;20025;-70
2021/08/13 10:17:10;;;;;;;9.90;4.22;;;30.60;99.20;;;;;;5032938;28;20061;-70
2021/08/13 10:19:38;;;;;;;6.70;4.43;;;31.60;98.40;;;;;;5032971;28;20391;-70
2021/08/13 10:22:05;;;;;;;9.20;4.30;;;32.10;98.00;;;;;;5033033;28;20472;-72
2021/08/13 10:24:31;;;;;;;7.45;4.30;;;32.80;96.00;;;;;;5031994;28;20501;-70
2021/08/13 10:26:57;;;;;;;9.27;4.47;;;32.80;97.00;;;;;;5032906;28;20148;-70
2021/08/13 10:29:24;;;;;;;7.68;4.70;;;32.10;96.00;;;;;;5032616;28;20426;-69
2021/08/13 10:31:50;;;;;;;8.07;4.35;;;31.50;96.00;;;;;;5033067;28;20025;-69
2021/08/13 10:34:15;;;;;;;10.60;4.78;;;30.90;97.20;;;;;;5032029;28;20021;-71
2021/08/13 10:36:42;;;;;;;11.02;4.43;;;31.50;97.30;;;;;;5032203;28;20029;-71
2021/08/13 10:39:10;;;;;;;8.88;5.20;;;31.40;97.40;;;;;;5032248;28;20068;-71
2021/08/13 10:41:40;;;;;;;12.27;4.93;;;31.50;97.00;;;;;;5032611;28;20025;-70
2021/08/13 10:44:13;;;;;;;6.93;4.53;;;32.00;97.10;;;;;;5031007;28;20426;-70
2021/08/13 10:46:40;;;;;;;8.10;4.75;;;32.00;95.40;;;;;;5031589;28;20471;-70
2021/08/13 10:49:10;;;;;;;8.48;4.60;;;31.70;95.90;;;;;;5003803;28;20030;-70
2021/08/13 10:51:36;;;;;;;9.73;4.78;;;32.00;97.00;;;;;;5066979;22;20072;-72
2021/08/13 10:54:06;;;;;;;6.55;4.78;;;32.20;94.90;;;;;;5040045;28;20427;-73
2021/08/13 10:56:46;;;;;;;7.93;4.57;;;32.20;95.90;;;;;;5031769;28;20021;-73
2021/08/13 10:59:12;;;;;;;7.55;5.07;;;32.20;95.90;;;;;;5032209;28;20100;-72
2021/08/13 11:02:12;;;;;;;10.70;4.70;;;31.80;95.30;;;;;;5033386;28;20061;-71
2021/08/13 11:04:46;;;;;;;9.90;4.78;;;32.60;96.60;;;;;;5051028;28;20032;-73
2021/08/13 11:07:13;;;;;;;8.75;4.90;;;33.20;93.70;;;;;;5042785;28;20052;-74
2021/08/13 11:09:39;;;;;;;9.10;5.15;;;33.30;95.80;;;;;;5051366;28;20022;-74
2021/08/13 11:12:15;;;;;;;11.25;4.22;;;33.80;93.20;;;;;;5051724;28;20547;-74
2021/08/13 11:14:55;;;;;;;7.70;4.40;;;34.20;92.90;;;;;;5051298;28;20013;-74
2021/08/13 11:17:38;;;;;;;7.00;4.70;;;34.90;93.00;;;;;;5051989;28;20025;-72
2021/08/13 11:20:07;;;;;;;6.32;4.68;;;34.00;93.40;;;;;;5051893;28;20032;-72
2021/08/13 11:22:35;;;;;;;7.35;4.15;;;35.00;92.50;;;;;;5045462;28;20099;-73
2021/08/13 11:25:03;;;;;;;8.23;4.75;;;35.90;91.00;;;;;;5050784;28;20376;-75
2021/08/13 11:27:29;;;;;;;6.18;4.57;;;35.80;87.40;;;;;;5051561;28;20020;-73
2021/08/13 11:29:54;;;;;;;9.65;4.40;;;34.50;90.90;;;;;;5051486;28;20074;-74
2021/08/13 11:32:21;;;;;;;8.63;4.95;;;33.90;91.30;;;;;;5051484;28;20039;-73
2021/08/13 11:34:55;;;;;;;6.68;4.75;;;34.50;92.00;;;;;;5050860;28;20450;-74
2021/08/13 11:37:37;;;;;;;10.43;4.82;;;34.40;91.60;;;;;;5051444;28;20021;-73
2021/08/13 11:40:12;;;;;;;9.23;5.18;;;32.80;92.00;;;;;;5051431;28;20543;-73
2021/08/13 11:42:45;;;;;;;12.48;5.18;;;32.80;92.50;;;;;;5050307;28;20024;-73
2021/08/13 11:45:11;;;;;;;10.95;6.38;;;33.10;92.80;;;;;;5045941;28;20078;-70
2021/08/13 11:47:37;;;;;;;6.68;5.03;;;33.10;92.60;;;;;;5049814;28;20063;-71
2021/08/13 11:50:08;;;;;;;8.13;5.32;;;33.30;93.00;;;;;;5050945;28;20486;-71
2021/08/13 11:52:36;;;;;;;7.30;5.00;;;33.40;92.70;;;;;;5046750;28;20032;-72
2021/08/13 11:55:35;;;;;;;10.18;5.68;;;34.00;92.10;;;;;;5047507;28;20299;-71
2021/08/13 11:58:06;;;;;;;9.88;5.38;;;34.20;90.80;;;;;;5017694;28;20081;-71
2021/08/13 12:00:34;;;;;;;6.22;5.63;;;34.60;91.40;;;;;;5051233;28;20045;-72
2021/08/13 12:03:01;;;;;;;8.27;4.72;;;35.30;89.60;;;;;;5043954;28;20040;-71
2021/08/13 12:05:32;;;;;;;6.32;4.88;;;35.80;90.40;;;;;;5030155;28;20344;-71
2021/08/13 12:08:00;;;;;;;12.07;5.93;;;36.60;88.00;;;;;;5030627;28;20104;-71
2021/08/13 12:10:27;;;;;;;8.13;5.28;;;36.70;87.80;;;;;;5033298;28;20472;-72
2021/08/13 12:12:53;;;;;;;6.45;4.90;;;36.70;87.90;;;;;;5034065;28;20472;-72
2021/08/13 12:15:34;;;;;;;8.73;4.72;;;36.70;84.80;;;;;;5030364;28;20017;-71
2021/08/13 12:18:00;;;;;;;9.35;5.05;;;36.80;83.70;;;;;;5032047;28;20025;-72
2021/08/13 12:20:27;;;;;;;8.77;5.43;;;35.20;83.40;;;;;;5035275;28;20037;-72
2021/08/13 12:23:02;;;;;;;6.13;5.22;;;34.70;86.00;;;;;;5034807;28;20025;-70
2021/08/13 12:25:46;;;;;;;13.13;5.80;;;33.80;87.20;;;;;;5050159;28;20029;-71
2021/08/13 12:28:13;;;;;;;6.93;6.22;;;33.70;89.60;;;;;;5054691;28;20025;-71
2021/08/13 12:30:40;;;;;;;9.13;5.30;;;33.70;88.60;;;;;;5055001;28;20045;-70
2021/08/13 12:33:13;;;;;;;10.07;5.65;;;34.20;90.00;;;;;;5054606;28;20025;-70
2021/08/13 12:35:42;;;;;;;8.95;5.13;;;34.80;88.30;;;;;;5054412;28;20483;-70
2021/08/13 12:38:09;;;;;;;9.35;5.95;;;34.70;86.00;;;;;;5050837;28;20549;-70
2021/08/13 12:40:44;;;;;;;8.25;5.50;;;33.90;86.70;;;;;;5045564;28;20104;-75